sensor_id;sensor_type;location;lat;lon;timestamp;P1;durP1;ratioP1;P2;durP2;ratioP2
15240;SDS011;7723;52.170;9.978;2022-07-06T00:02:03;4.88;;;2.28;;
15240;SDS011;7723;52.170;9.978;2022-07-06T00:04:30;4.40;;;1.30;;
15240;SDS011;7723;52.170;9.978;2022-07-06T00:06:57;3.83;;;1.75;;
15240;SDS011;7723;52.170;9.978;2022-07-06T00:09:25;2.13;;;1.30;;
15240;SDS011;7723;52.170;9.978;2022-07-06T00:11:52;1.90;;;1.40;;
15240;SDS011;7723;52.170;9.978;2022-07-06T00:14:19;4.25;;;1.45;;
15240;SDS011;7723;52.170;9.978;2022-07-06T00:16:46;3.33;;;1.50;;
15240;SDS011;7723;52.170;9.978;2022-07-06T00:19:15;6.95;;;1.63;;
15240;SDS011;7723;52.170;9.978;2022-07-06T00:21:42;3.33;;;1.60;;
15240;SDS011;7723;52.170;9.978;2022-07-06T00:24:09;3.70;;;1.58;;
15240;SDS011;7723;52.170;9.978;2022-07-06T00:26:36;1.73;;;1.20;;
15240;SDS011;7723;52.170;9.978;2022-07-06T00:29:03;3.15;;;1.63;;
15240;SDS011;7723;52.170;9.978;2022-07-06T00:31:30;1.67;;;1.40;;
15240;SDS011;7723;52.170;9.978;2022-07-06T00:33:57;4.28;;;1.23;;
15240;SDS011;7723;52.170;9.978;2022-07-06T00:36:26;3.40;;;1.20;;
15240;SDS011;7723;52.170;9.978;2022-07-06T00:38:53;2.50;;;1.20;;
15240;SDS011;7723;52.170;9.978;2022-07-06T00:41:20;2.60;;;1.00;;
15240;SDS011;7723;52.170;9.978;2022-07-06T00:43:48;2.35;;;1.20;;
15240;SDS011;7723;52.170;9.978;2022-07-06T00:46:16;2.90;;;1.52;;
15240;SDS011;7723;52.170;9.978;2022-07-06T00:48:43;1.50;;;1.30;;
15240;SDS011;7723;52.170;9.978;2022-07-06T00:51:10;3.78;;;1.30;;
15240;SDS011;7723;52.170;9.978;2022-07-06T00:53:39;2.67;;;1.42;;
15240;SDS011;7723;52.170;9.978;2022-07-06T00:56:08;1.90;;;1.30;;
15240;SDS011;7723;52.170;9.978;2022-07-06T00:58:36;3.35;;;1.35;;
15240;SDS011;7723;52.170;9.978;2022-07-06T01:01:03;2.58;;;1.20;;
15240;SDS011;7723;52.170;9.978;2022-07-06T01:03:30;3.40;;;1.77;;
15240;SDS011;7723;52.170;9.978;2022-07-06T01:05:59;2.42;;;1.10;;
15240;SDS011;7723;52.170;9.978;2022-07-06T01:08:27;2.85;;;1.35;;
15240;SDS011;7723;52.170;9.978;2022-07-06T01:10:56;5.30;;;1.60;;
15240;SDS011;7723;52.170;9.978;2022-07-06T01:13:24;4.18;;;1.40;;
15240;SDS011;7723;52.170;9.978;2022-07-06T01:15:52;2.05;;;1.23;;
15240;SDS011;7723;52.170;9.978;2022-07-06T01:18:19;1.67;;;0.98;;
15240;SDS011;7723;52.170;9.978;2022-07-06T01:20:48;2.08;;;1.10;;
15240;SDS011;7723;52.170;9.978;2022-07-06T01:23:15;4.13;;;1.45;;
15240;SDS011;7723;52.170;9.978;2022-07-06T01:25:42;2.95;;;1.23;;
15240;SDS011;7723;52.170;9.978;2022-07-06T01:28:09;2.70;;;1.10;;
15240;SDS011;7723;52.170;9.978;2022-07-06T01:30:36;2.85;;;1.38;;
15240;SDS011;7723;52.170;9.978;2022-07-06T01:33:04;1.88;;;1.25;;
15240;SDS011;7723;52.170;9.978;2022-07-06T01:35:31;3.05;;;1.40;;
15240;SDS011;7723;52.170;9.978;2022-07-06T01:38:03;1.95;;;1.15;;
15240;SDS011;7723;52.170;9.978;2022-07-06T01:40:30;1.88;;;1.10;;
15240;SDS011;7723;52.170;9.978;2022-07-06T01:42:57;4.85;;;1.67;;
15240;SDS011;7723;52.170;9.978;2022-07-06T01:45:24;2.55;;;1.15;;
15240;SDS011;7723;52.170;9.978;2022-07-06T01:47:52;3.40;;;1.45;;
15240;SDS011;7723;52.170;9.978;2022-07-06T01:50:19;2.60;;;1.33;;
15240;SDS011;7723;52.170;9.978;2022-07-06T01:52:46;2.50;;;1.20;;
15240;SDS011;7723;52.170;9.978;2022-07-06T01:55:14;2.63;;;1.30;;
15240;SDS011;7723;52.170;9.978;2022-07-06T01:57:41;4.25;;;1.35;;
15240;SDS011;7723;52.170;9.978;2022-07-06T02:00:09;3.40;;;1.98;;
15240;SDS011;7723;52.170;9.978;2022-07-06T02:02:36;4.55;;;1.00;;
15240;SDS011;7723;52.170;9.978;2022-07-06T02:05:04;2.17;;;1.23;;
15240;SDS011;7723;52.170;9.978;2022-07-06T02:07:31;1.45;;;1.23;;
15240;SDS011;7723;52.170;9.978;2022-07-06T02:09:58;2.92;;;1.00;;
15240;SDS011;7723;52.170;9.978;2022-07-06T02:12:27;1.65;;;1.10;;
15240;SDS011;7723;52.170;9.978;2022-07-06T02:14:54;1.45;;;0.98;;
15240;SDS011;7723;52.170;9.978;2022-07-06T02:17:21;3.45;;;1.52;;
15240;SDS011;7723;52.170;9.978;2022-07-06T02:19:48;2.95;;;1.20;;
15240;SDS011;7723;52.170;9.978;2022-07-06T02:22:15;1.83;;;1.00;;
15240;SDS011;7723;52.170;9.978;2022-07-06T02:24:42;1.00;;;0.90;;
15240;SDS011;7723;52.170;9.978;2022-07-06T02:27:09;1.40;;;1.05;;
15240;SDS011;7723;52.170;9.978;2022-07-06T02:29:38;2.35;;;1.00;;
15240;SDS011;7723;52.170;9.978;2022-07-06T02:32:05;3.45;;;1.10;;
15240;SDS011;7723;52.170;9.978;2022-07-06T02:34:33;0.85;;;0.80;;
15240;SDS011;7723;52.170;9.978;2022-07-06T02:37:00;2.53;;;0.93;;
15240;SDS011;7723;52.170;9.978;2022-07-06T02:39:27;2.80;;;1.38;;
15240;SDS011;7723;52.170;9.978;2022-07-06T02:41:54;2.65;;;1.58;;
15240;SDS011;7723;52.170;9.978;2022-07-06T02:44:21;2.17;;;1.05;;
15240;SDS011;7723;52.170;9.978;2022-07-06T02:46:50;2.88;;;1.05;;
15240;SDS011;7723;52.170;9.978;2022-07-06T02:49:17;1.83;;;0.98;;
15240;SDS011;7723;52.170;9.978;2022-07-06T02:51:44;2.85;;;1.15;;
15240;SDS011;7723;52.170;9.978;2022-07-06T02:54:11;5.65;;;1.20;;
15240;SDS011;7723;52.170;9.978;2022-07-06T02:56:39;1.40;;;1.00;;
15240;SDS011;7723;52.170;9.978;2022-07-06T02:59:06;4.65;;;1.23;;
15240;SDS011;7723;52.170;9.978;2022-07-06T03:01:33;2.13;;;1.25;;
15240;SDS011;7723;52.170;9.978;2022-07-06T03:04:01;1.95;;;1.23;;
15240;SDS011;7723;52.170;9.978;2022-07-06T03:06:28;2.40;;;0.90;;
15240;SDS011;7723;52.170;9.978;2022-07-06T03:08:55;3.53;;;1.27;;
15240;SDS011;7723;52.170;9.978;2022-07-06T03:11:23;2.33;;;1.15;;
15240;SDS011;7723;52.170;9.978;2022-07-06T03:13:50;1.63;;;1.08;;
15240;SDS011;7723;52.170;9.978;2022-07-06T03:16:17;4.65;;;1.42;;
15240;SDS011;7723;52.170;9.978;2022-07-06T03:18:44;1.63;;;1.15;;
15240;SDS011;7723;52.170;9.978;2022-07-06T03:21:12;1.52;;;1.10;;
15240;SDS011;7723;52.170;9.978;2022-07-06T03:23:39;0.98;;;0.88;;
15240;SDS011;7723;52.170;9.978;2022-07-06T03:26:06;3.50;;;1.20;;
15240;SDS011;7723;52.170;9.978;2022-07-06T03:28:33;1.77;;;1.10;;
15240;SDS011;7723;52.170;9.978;2022-07-06T03:31:01;3.65;;;1.08;;
15240;SDS011;7723;52.170;9.978;2022-07-06T03:33:28;2.80;;;1.17;;
15240;SDS011;7723;52.170;9.978;2022-07-06T03:35:55;2.70;;;1.42;;
15240;SDS011;7723;52.170;9.978;2022-07-06T03:38:23;2.97;;;1.00;;
15240;SDS011;7723;52.170;9.978;2022-07-06T03:40:51;3.08;;;1.20;;
15240;SDS011;7723;52.170;9.978;2022-07-06T03:43:18;5.55;;;1.10;;
15240;SDS011;7723;52.170;9.978;2022-07-06T03:45:45;1.73;;;1.00;;
15240;SDS011;7723;52.170;9.978;2022-07-06T03:48:12;3.78;;;1.42;;
15240;SDS011;7723;52.170;9.978;2022-07-06T03:50:39;5.78;;;1.23;;
15240;SDS011;7723;52.170;9.978;2022-07-06T03:53:06;2.58;;;1.20;;
15240;SDS011;7723;52.170;9.978;2022-07-06T03:55:35;3.05;;;1.05;;
15240;SDS011;7723;52.170;9.978;2022-07-06T03:58:02;1.10;;;0.90;;
15240;SDS011;7723;52.170;9.978;2022-07-06T04:00:29;1.85;;;1.00;;
15240;SDS011;7723;52.170;9.978;2022-07-06T04:02:57;3.78;;;1.30;;
15240;SDS011;7723;52.170;9.978;2022-07-06T04:05:25;2.08;;;1.17;;
15240;SDS011;7723;52.170;9.978;2022-07-06T04:07:52;2.25;;;0.90;;
15240;SDS011;7723;52.170;9.978;2022-07-06T04:10:19;1.90;;;0.70;;
15240;SDS011;7723;52.170;9.978;2022-07-06T04:12:47;1.40;;;1.10;;
15240;SDS011;7723;52.170;9.978;2022-07-06T04:15:14;3.08;;;1.40;;
15240;SDS011;7723;52.170;9.978;2022-07-06T04:17:41;2.10;;;0.93;;
15240;SDS011;7723;52.170;9.978;2022-07-06T04:20:21;2.42;;;1.00;;
15240;SDS011;7723;52.170;9.978;2022-07-06T04:22:50;1.33;;;0.93;;
15240;SDS011;7723;52.170;9.978;2022-07-06T04:25:17;2.67;;;1.00;;
15240;SDS011;7723;52.170;9.978;2022-07-06T04:27:45;2.97;;;1.42;;
15240;SDS011;7723;52.170;9.978;2022-07-06T04:30:13;2.55;;;1.00;;
15240;SDS011;7723;52.170;9.978;2022-07-06T04:32:41;1.92;;;1.10;;
15240;SDS011;7723;52.170;9.978;2022-07-06T04:35:09;2.13;;;0.90;;
15240;SDS011;7723;52.170;9.978;2022-07-06T04:37:36;4.28;;;1.27;;
15240;SDS011;7723;52.170;9.978;2022-07-06T04:40:04;2.33;;;1.00;;
15240;SDS011;7723;52.170;9.978;2022-07-06T04:42:31;5.90;;;1.52;;
15240;SDS011;7723;52.170;9.978;2022-07-06T04:44:59;6.57;;;1.63;;
15240;SDS011;7723;52.170;9.978;2022-07-06T04:47:27;3.05;;;0.90;;
15240;SDS011;7723;52.170;9.978;2022-07-06T04:49:54;3.47;;;1.08;;
15240;SDS011;7723;52.170;9.978;2022-07-06T04:52:21;4.25;;;1.13;;
15240;SDS011;7723;52.170;9.978;2022-07-06T04:54:48;2.33;;;1.42;;
15240;SDS011;7723;52.170;9.978;2022-07-06T04:57:16;3.35;;;1.25;;
15240;SDS011;7723;52.170;9.978;2022-07-06T04:59:43;3.95;;;1.00;;
15240;SDS011;7723;52.170;9.978;2022-07-06T05:02:10;5.03;;;1.00;;
15240;SDS011;7723;52.170;9.978;2022-07-06T05:04:39;1.20;;;1.00;;
15240;SDS011;7723;52.170;9.978;2022-07-06T05:07:06;2.50;;;0.90;;
15240;SDS011;7723;52.170;9.978;2022-07-06T05:09:33;5.25;;;1.45;;
15240;SDS011;7723;52.170;9.978;2022-07-06T05:12:00;3.05;;;1.60;;
15240;SDS011;7723;52.170;9.978;2022-07-06T05:14:28;3.35;;;1.00;;
15240;SDS011;7723;52.170;9.978;2022-07-06T05:16:55;2.72;;;0.95;;
15240;SDS011;7723;52.170;9.978;2022-07-06T05:19:22;2.65;;;1.00;;
15240;SDS011;7723;52.170;9.978;2022-07-06T05:21:50;3.13;;;0.88;;
15240;SDS011;7723;52.170;9.978;2022-07-06T05:24:17;7.10;;;1.90;;
15240;SDS011;7723;52.170;9.978;2022-07-06T05:26:45;2.10;;;0.98;;
15240;SDS011;7723;52.170;9.978;2022-07-06T05:29:12;3.15;;;1.02;;
15240;SDS011;7723;52.170;9.978;2022-07-06T05:31:39;1.45;;;0.90;;
15240;SDS011;7723;52.170;9.978;2022-07-06T05:34:06;2.20;;;1.00;;
15240;SDS011;7723;52.170;9.978;2022-07-06T05:36:33;3.60;;;1.20;;
15240;SDS011;7723;52.170;9.978;2022-07-06T05:39:02;4.93;;;1.40;;
15240;SDS011;7723;52.170;9.978;2022-07-06T05:41:29;3.05;;;0.98;;
15240;SDS011;7723;52.170;9.978;2022-07-06T05:43:56;4.50;;;1.30;;
15240;SDS011;7723;52.170;9.978;2022-07-06T05:46:23;4.25;;;1.00;;
15240;SDS011;7723;52.170;9.978;2022-07-06T05:48:50;3.38;;;1.00;;
15240;SDS011;7723;52.170;9.978;2022-07-06T05:51:35;1.85;;;0.95;;
15240;SDS011;7723;52.170;9.978;2022-07-06T05:54:03;2.00;;;0.90;;
15240;SDS011;7723;52.170;9.978;2022-07-06T05:56:31;2.75;;;0.93;;
15240;SDS011;7723;52.170;9.978;2022-07-06T05:58:58;3.00;;;1.00;;
15240;SDS011;7723;52.170;9.978;2022-07-06T06:01:25;2.55;;;0.80;;
15240;SDS011;7723;52.170;9.978;2022-07-06T06:03:52;3.20;;;0.90;;
15240;SDS011;7723;52.170;9.978;2022-07-06T06:06:19;1.90;;;1.08;;
15240;SDS011;7723;52.170;9.978;2022-07-06T06:08:46;2.88;;;1.10;;
15240;SDS011;7723;52.170;9.978;2022-07-06T06:11:14;5.47;;;1.10;;
15240;SDS011;7723;52.170;9.978;2022-07-06T06:13:42;0.80;;;0.80;;
15240;SDS011;7723;52.170;9.978;2022-07-06T06:16:09;2.60;;;1.10;;
15240;SDS011;7723;52.170;9.978;2022-07-06T06:18:36;2.53;;;1.00;;
15240;SDS011;7723;52.170;9.978;2022-07-06T06:21:04;2.53;;;1.17;;
15240;SDS011;7723;52.170;9.978;2022-07-06T06:23:31;2.55;;;0.90;;
15240;SDS011;7723;52.170;9.978;2022-07-06T06:25:58;3.30;;;0.93;;
15240;SDS011;7723;52.170;9.978;2022-07-06T06:28:26;1.70;;;0.88;;
15240;SDS011;7723;52.170;9.978;2022-07-06T06:30:54;3.83;;;0.90;;
15240;SDS011;7723;52.170;9.978;2022-07-06T06:33:21;3.92;;;0.98;;
15240;SDS011;7723;52.170;9.978;2022-07-06T06:35:48;3.80;;;1.00;;
15240;SDS011;7723;52.170;9.978;2022-07-06T06:38:17;3.22;;;1.20;;
15240;SDS011;7723;52.170;9.978;2022-07-06T06:40:45;3.08;;;1.30;;
15240;SDS011;7723;52.170;9.978;2022-07-06T06:43:12;2.92;;;1.15;;
15240;SDS011;7723;52.170;9.978;2022-07-06T06:45:41;1.90;;;1.10;;
15240;SDS011;7723;52.170;9.978;2022-07-06T06:48:09;1.75;;;1.05;;
15240;SDS011;7723;52.170;9.978;2022-07-06T06:50:37;3.83;;;1.30;;
15240;SDS011;7723;52.170;9.978;2022-07-06T06:53:04;2.42;;;0.93;;
15240;SDS011;7723;52.170;9.978;2022-07-06T06:55:34;2.65;;;1.10;;
15240;SDS011;7723;52.170;9.978;2022-07-06T06:58:01;3.17;;;1.10;;
15240;SDS011;7723;52.170;9.978;2022-07-06T07:00:29;1.75;;;0.90;;
15240;SDS011;7723;52.170;9.978;2022-07-06T07:02:57;3.70;;;1.00;;
15240;SDS011;7723;52.170;9.978;2022-07-06T07:05:24;1.48;;;0.85;;
15240;SDS011;7723;52.170;9.978;2022-07-06T07:07:52;4.70;;;1.02;;
15240;SDS011;7723;52.170;9.978;2022-07-06T07:10:19;2.40;;;0.95;;
15240;SDS011;7723;52.170;9.978;2022-07-06T07:12:47;4.35;;;0.95;;
15240;SDS011;7723;52.170;9.978;2022-07-06T07:15:14;1.42;;;0.75;;
15240;SDS011;7723;52.170;9.978;2022-07-06T07:17:42;3.72;;;0.90;;
15240;SDS011;7723;52.170;9.978;2022-07-06T07:20:11;1.45;;;0.73;;
15240;SDS011;7723;52.170;9.978;2022-07-06T07:22:38;1.35;;;0.70;;
15240;SDS011;7723;52.170;9.978;2022-07-06T07:25:06;2.30;;;0.85;;
15240;SDS011;7723;52.170;9.978;2022-07-06T07:27:33;1.13;;;0.93;;
15240;SDS011;7723;52.170;9.978;2022-07-06T07:30:01;3.25;;;1.05;;
15240;SDS011;7723;52.170;9.978;2022-07-06T07:32:28;2.35;;;0.70;;
15240;SDS011;7723;52.170;9.978;2022-07-06T07:34:55;1.80;;;0.80;;
15240;SDS011;7723;52.170;9.978;2022-07-06T07:37:24;3.42;;;0.82;;
15240;SDS011;7723;52.170;9.978;2022-07-06T07:39:51;1.58;;;0.70;;
15240;SDS011;7723;52.170;9.978;2022-07-06T07:42:18;3.70;;;1.00;;
15240;SDS011;7723;52.170;9.978;2022-07-06T07:44:45;2.50;;;0.90;;
15240;SDS011;7723;52.170;9.978;2022-07-06T07:47:12;4.22;;;1.08;;
15240;SDS011;7723;52.170;9.978;2022-07-06T07:49:39;5.45;;;0.77;;
15240;SDS011;7723;52.170;9.978;2022-07-06T07:52:06;1.83;;;0.95;;
15240;SDS011;7723;52.170;9.978;2022-07-06T07:54:35;2.33;;;0.90;;
15240;SDS011;7723;52.170;9.978;2022-07-06T07:57:02;3.45;;;0.90;;
15240;SDS011;7723;52.170;9.978;2022-07-06T07:59:30;1.48;;;0.70;;
15240;SDS011;7723;52.170;9.978;2022-07-06T08:01:57;2.10;;;0.98;;
15240;SDS011;7723;52.170;9.978;2022-07-06T08:04:24;3.08;;;1.20;;
15240;SDS011;7723;52.170;9.978;2022-07-06T08:06:51;1.30;;;0.60;;
15240;SDS011;7723;52.170;9.978;2022-07-06T08:09:18;2.55;;;0.98;;
15240;SDS011;7723;52.170;9.978;2022-07-06T08:11:47;1.50;;;0.60;;
15240;SDS011;7723;52.170;9.978;2022-07-06T08:14:14;1.08;;;0.80;;
15240;SDS011;7723;52.170;9.978;2022-07-06T08:16:42;1.83;;;0.82;;
15240;SDS011;7723;52.170;9.978;2022-07-06T08:19:10;2.72;;;0.85;;
15240;SDS011;7723;52.170;9.978;2022-07-06T08:21:40;1.50;;;0.70;;
15240;SDS011;7723;52.170;9.978;2022-07-06T08:24:08;0.70;;;0.70;;
15240;SDS011;7723;52.170;9.978;2022-07-06T08:26:35;1.38;;;0.60;;
15240;SDS011;7723;52.170;9.978;2022-07-06T08:29:04;1.55;;;0.65;;
15240;SDS011;7723;52.170;9.978;2022-07-06T08:31:31;0.73;;;0.60;;
15240;SDS011;7723;52.170;9.978;2022-07-06T08:33:59;1.67;;;0.70;;
15240;SDS011;7723;52.170;9.978;2022-07-06T08:36:27;1.48;;;0.75;;
15240;SDS011;7723;52.170;9.978;2022-07-06T08:38:54;1.58;;;0.70;;
15240;SDS011;7723;52.170;9.978;2022-07-06T08:41:21;1.27;;;0.80;;
15240;SDS011;7723;52.170;9.978;2022-07-06T08:43:50;3.10;;;0.70;;
15240;SDS011;7723;52.170;9.978;2022-07-06T08:46:20;2.25;;;0.68;;
15240;SDS011;7723;52.170;9.978;2022-07-06T08:48:48;1.65;;;0.80;;
15240;SDS011;7723;52.170;9.978;2022-07-06T08:51:16;3.85;;;0.80;;
15240;SDS011;7723;52.170;9.978;2022-07-06T08:53:44;2.17;;;0.82;;
15240;SDS011;7723;52.170;9.978;2022-07-06T08:56:13;2.65;;;0.65;;
15240;SDS011;7723;52.170;9.978;2022-07-06T08:58:41;2.97;;;0.68;;
15240;SDS011;7723;52.170;9.978;2022-07-06T09:01:08;1.55;;;0.70;;
15240;SDS011;7723;52.170;9.978;2022-07-06T09:03:38;1.52;;;0.70;;
15240;SDS011;7723;52.170;9.978;2022-07-06T09:06:06;2.03;;;0.70;;
15240;SDS011;7723;52.170;9.978;2022-07-06T09:08:34;0.82;;;0.70;;
15240;SDS011;7723;52.170;9.978;2022-07-06T09:11:02;1.25;;;0.65;;
15240;SDS011;7723;52.170;9.978;2022-07-06T09:13:29;1.35;;;0.70;;
15240;SDS011;7723;52.170;9.978;2022-07-06T09:16:00;1.15;;;0.80;;
15240;SDS011;7723;52.170;9.978;2022-07-06T09:18:38;1.35;;;0.70;;
15240;SDS011;7723;52.170;9.978;2022-07-06T09:21:07;2.38;;;0.70;;
15240;SDS011;7723;52.170;9.978;2022-07-06T09:23:35;1.52;;;0.65;;
15240;SDS011;7723;52.170;9.978;2022-07-06T09:26:03;0.68;;;0.50;;
15240;SDS011;7723;52.170;9.978;2022-07-06T09:28:41;1.67;;;0.65;;
15240;SDS011;7723;52.170;9.978;2022-07-06T09:31:08;3.63;;;0.50;;
15240;SDS011;7723;52.170;9.978;2022-07-06T09:33:37;0.93;;;0.75;;
15240;SDS011;7723;52.170;9.978;2022-07-06T09:36:05;3.42;;;0.60;;
15240;SDS011;7723;52.170;9.978;2022-07-06T09:38:32;1.35;;;0.77;;
15240;SDS011;7723;52.170;9.978;2022-07-06T09:40:59;1.25;;;0.50;;
15240;SDS011;7723;52.170;9.978;2022-07-06T09:43:28;1.75;;;0.70;;
15240;SDS011;7723;52.170;9.978;2022-07-06T09:45:58;1.75;;;0.50;;
15240;SDS011;7723;52.170;9.978;2022-07-06T09:48:26;2.67;;;0.70;;
15240;SDS011;7723;52.170;9.978;2022-07-06T09:50:56;1.35;;;0.95;;
15240;SDS011;7723;52.170;9.978;2022-07-06T09:53:24;1.88;;;0.50;;
15240;SDS011;7723;52.170;9.978;2022-07-06T09:55:53;2.75;;;0.65;;
15240;SDS011;7723;52.170;9.978;2022-07-06T09:58:21;1.08;;;0.50;;
15240;SDS011;7723;52.170;9.978;2022-07-06T10:00:49;2.25;;;0.95;;
15240;SDS011;7723;52.170;9.978;2022-07-06T10:03:17;1.45;;;0.60;;
15240;SDS011;7723;52.170;9.978;2022-07-06T10:05:44;1.67;;;0.80;;
15240;SDS011;7723;52.170;9.978;2022-07-06T10:08:15;1.58;;;0.70;;
15240;SDS011;7723;52.170;9.978;2022-07-06T10:10:43;2.70;;;0.73;;
15240;SDS011;7723;52.170;9.978;2022-07-06T10:13:11;0.95;;;0.60;;
15240;SDS011;7723;52.170;9.978;2022-07-06T10:15:40;0.50;;;0.40;;
15240;SDS011;7723;52.170;9.978;2022-07-06T10:18:08;1.40;;;0.60;;
15240;SDS011;7723;52.170;9.978;2022-07-06T10:20:37;1.05;;;0.80;;
15240;SDS011;7723;52.170;9.978;2022-07-06T10:23:06;2.15;;;0.70;;
15240;SDS011;7723;52.170;9.978;2022-07-06T10:25:36;1.75;;;1.10;;
15240;SDS011;7723;52.170;9.978;2022-07-06T10:28:03;1.92;;;0.82;;
15240;SDS011;7723;52.170;9.978;2022-07-06T10:30:39;3.15;;;0.82;;
15240;SDS011;7723;52.170;9.978;2022-07-06T10:33:07;0.70;;;0.70;;
15240;SDS011;7723;52.170;9.978;2022-07-06T10:35:35;1.42;;;0.80;;
15240;SDS011;7723;52.170;9.978;2022-07-06T10:38:07;1.52;;;0.93;;
15240;SDS011;7723;52.170;9.978;2022-07-06T10:40:37;0.73;;;0.60;;
15240;SDS011;7723;52.170;9.978;2022-07-06T10:43:23;2.10;;;0.80;;
15240;SDS011;7723;52.170;9.978;2022-07-06T10:45:57;2.22;;;0.70;;
15240;SDS011;7723;52.170;9.978;2022-07-06T10:48:24;3.42;;;0.82;;
15240;SDS011;7723;52.170;9.978;2022-07-06T10:50:52;1.60;;;0.57;;
15240;SDS011;7723;52.170;9.978;2022-07-06T10:53:23;1.70;;;0.82;;
15240;SDS011;7723;52.170;9.978;2022-07-06T10:55:52;3.35;;;0.70;;
15240;SDS011;7723;52.170;9.978;2022-07-06T11:01:16;3.28;;;0.63;;
15240;SDS011;7723;52.170;9.978;2022-07-06T11:03:44;0.93;;;0.60;;
15240;SDS011;7723;52.170;9.978;2022-07-06T11:06:13;0.85;;;0.70;;
15240;SDS011;7723;52.170;9.978;2022-07-06T11:08:45;3.22;;;0.60;;
15240;SDS011;7723;52.170;9.978;2022-07-06T11:11:20;4.00;;;0.90;;
15240;SDS011;7723;52.170;9.978;2022-07-06T11:13:50;2.08;;;0.70;;
15240;SDS011;7723;52.170;9.978;2022-07-06T11:16:18;2.83;;;0.80;;
15240;SDS011;7723;52.170;9.978;2022-07-06T11:18:47;1.30;;;0.50;;
15240;SDS011;7723;52.170;9.978;2022-07-06T11:21:20;2.05;;;0.57;;
15240;SDS011;7723;52.170;9.978;2022-07-06T11:23:50;2.70;;;0.40;;
15240;SDS011;7723;52.170;9.978;2022-07-06T11:26:17;1.10;;;0.40;;
15240;SDS011;7723;52.170;9.978;2022-07-06T11:28:47;1.00;;;0.60;;
15240;SDS011;7723;52.170;9.978;2022-07-06T11:31:15;1.33;;;0.70;;
15240;SDS011;7723;52.170;9.978;2022-07-06T11:33:44;1.52;;;0.60;;
15240;SDS011;7723;52.170;9.978;2022-07-06T11:36:13;2.17;;;0.70;;
15240;SDS011;7723;52.170;9.978;2022-07-06T11:38:42;1.42;;;0.50;;
15240;SDS011;7723;52.170;9.978;2022-07-06T11:41:09;3.15;;;0.88;;
15240;SDS011;7723;52.170;9.978;2022-07-06T11:43:40;1.25;;;0.40;;
15240;SDS011;7723;52.170;9.978;2022-07-06T11:46:23;1.73;;;0.70;;
15240;SDS011;7723;52.170;9.978;2022-07-06T11:48:52;0.60;;;0.60;;
15240;SDS011;7723;52.170;9.978;2022-07-06T11:51:20;1.20;;;0.43;;
15240;SDS011;7723;52.170;9.978;2022-07-06T11:53:48;1.20;;;0.63;;
15240;SDS011;7723;52.170;9.978;2022-07-06T11:56:16;3.60;;;0.80;;
15240;SDS011;7723;52.170;9.978;2022-07-06T11:58:48;2.42;;;0.70;;
15240;SDS011;7723;52.170;9.978;2022-07-06T12:01:16;0.90;;;0.57;;
15240;SDS011;7723;52.170;9.978;2022-07-06T12:03:43;2.17;;;0.77;;
15240;SDS011;7723;52.170;9.978;2022-07-06T12:06:15;1.98;;;0.88;;
15240;SDS011;7723;52.170;9.978;2022-07-06T12:08:44;1.08;;;0.45;;
15240;SDS011;7723;52.170;9.978;2022-07-06T12:11:17;1.30;;;0.50;;
15240;SDS011;7723;52.170;9.978;2022-07-06T12:13:52;2.92;;;0.55;;
15240;SDS011;7723;52.170;9.978;2022-07-06T12:16:21;3.15;;;0.95;;
15240;SDS011;7723;52.170;9.978;2022-07-06T12:18:54;1.00;;;0.40;;
15240;SDS011;7723;52.170;9.978;2022-07-06T12:21:22;1.58;;;0.47;;
15240;SDS011;7723;52.170;9.978;2022-07-06T12:23:49;1.05;;;1.00;;
15240;SDS011;7723;52.170;9.978;2022-07-06T12:26:17;2.30;;;0.50;;
15240;SDS011;7723;52.170;9.978;2022-07-06T12:28:59;2.63;;;0.80;;
15240;SDS011;7723;52.170;9.978;2022-07-06T12:31:33;1.00;;;0.50;;
15240;SDS011;7723;52.170;9.978;2022-07-06T12:34:02;0.93;;;0.30;;
15240;SDS011;7723;52.170;9.978;2022-07-06T12:36:29;0.30;;;0.30;;
15240;SDS011;7723;52.170;9.978;2022-07-06T12:38:57;1.27;;;0.60;;
15240;SDS011;7723;52.170;9.978;2022-07-06T12:41:25;0.80;;;0.40;;
15240;SDS011;7723;52.170;9.978;2022-07-06T12:44:02;1.20;;;0.40;;
15240;SDS011;7723;52.170;9.978;2022-07-06T12:46:31;2.88;;;0.50;;
15240;SDS011;7723;52.170;9.978;2022-07-06T12:49:01;1.30;;;0.50;;
15240;SDS011;7723;52.170;9.978;2022-07-06T12:51:52;0.47;;;0.45;;
15240;SDS011;7723;52.170;9.978;2022-07-06T12:54:24;1.48;;;0.52;;
15240;SDS011;7723;52.170;9.978;2022-07-06T12:56:56;2.00;;;0.60;;
15240;SDS011;7723;52.170;9.978;2022-07-06T12:59:26;1.08;;;0.50;;
15240;SDS011;7723;52.170;9.978;2022-07-06T13:01:54;1.20;;;0.55;;
15240;SDS011;7723;52.170;9.978;2022-07-06T13:04:22;1.20;;;0.65;;
15240;SDS011;7723;52.170;9.978;2022-07-06T13:06:49;1.27;;;0.52;;
15240;SDS011;7723;52.170;9.978;2022-07-06T13:09:17;1.50;;;0.40;;
15240;SDS011;7723;52.170;9.978;2022-07-06T13:11:44;1.58;;;0.60;;
15240;SDS011;7723;52.170;9.978;2022-07-06T13:14:12;1.05;;;0.60;;
15240;SDS011;7723;52.170;9.978;2022-07-06T13:16:41;0.88;;;0.40;;
15240;SDS011;7723;52.170;9.978;2022-07-06T13:19:08;1.77;;;0.70;;
15240;SDS011;7723;52.170;9.978;2022-07-06T13:21:36;0.63;;;0.50;;
15240;SDS011;7723;52.170;9.978;2022-07-06T13:24:03;3.45;;;0.65;;
15240;SDS011;7723;52.170;9.978;2022-07-06T13:26:31;1.92;;;0.50;;
15240;SDS011;7723;52.170;9.978;2022-07-06T13:28:59;1.60;;;1.10;;
15240;SDS011;7723;52.170;9.978;2022-07-06T13:31:26;1.23;;;0.40;;
15240;SDS011;7723;52.170;9.978;2022-07-06T13:33:55;5.10;;;0.60;;
15240;SDS011;7723;52.170;9.978;2022-07-06T13:36:23;0.60;;;0.50;;
15240;SDS011;7723;52.170;9.978;2022-07-06T13:38:50;3.38;;;0.60;;
15240;SDS011;7723;52.170;9.978;2022-07-06T13:41:17;0.60;;;0.50;;
15240;SDS011;7723;52.170;9.978;2022-07-06T13:43:44;1.02;;;0.65;;
15240;SDS011;7723;52.170;9.978;2022-07-06T13:46:12;2.05;;;0.80;;
15240;SDS011;7723;52.170;9.978;2022-07-06T13:48:39;1.10;;;0.50;;
15240;SDS011;7723;52.170;9.978;2022-07-06T13:51:07;1.77;;;0.60;;
15240;SDS011;7723;52.170;9.978;2022-07-06T13:53:35;1.08;;;0.60;;
15240;SDS011;7723;52.170;9.978;2022-07-06T13:56:02;1.30;;;0.50;;
15240;SDS011;7723;52.170;9.978;2022-07-06T13:58:30;1.70;;;0.90;;
15240;SDS011;7723;52.170;9.978;2022-07-06T14:00:57;2.38;;;1.15;;
15240;SDS011;7723;52.170;9.978;2022-07-06T14:03:24;1.70;;;0.95;;
15240;SDS011;7723;52.170;9.978;2022-07-06T14:05:54;1.08;;;0.65;;
15240;SDS011;7723;52.170;9.978;2022-07-06T14:08:24;2.65;;;0.88;;
15240;SDS011;7723;52.170;9.978;2022-07-06T14:10:52;1.00;;;0.70;;
15240;SDS011;7723;52.170;9.978;2022-07-06T14:13:20;2.50;;;0.80;;
15240;SDS011;7723;52.170;9.978;2022-07-06T14:15:48;1.15;;;0.70;;
15240;SDS011;7723;52.170;9.978;2022-07-06T14:18:16;0.57;;;0.50;;
15240;SDS011;7723;52.170;9.978;2022-07-06T14:20:43;1.77;;;0.60;;
15240;SDS011;7723;52.170;9.978;2022-07-06T14:23:11;2.30;;;0.75;;
15240;SDS011;7723;52.170;9.978;2022-07-06T14:25:39;2.22;;;0.60;;
15240;SDS011;7723;52.170;9.978;2022-07-06T14:28:07;3.00;;;0.50;;
15240;SDS011;7723;52.170;9.978;2022-07-06T14:30:35;0.93;;;0.52;;
15240;SDS011;7723;52.170;9.978;2022-07-06T14:33:04;1.48;;;0.52;;
15240;SDS011;7723;52.170;9.978;2022-07-06T14:35:34;2.78;;;0.98;;
15240;SDS011;7723;52.170;9.978;2022-07-06T14:38:01;1.52;;;0.68;;
15240;SDS011;7723;52.170;9.978;2022-07-06T14:40:29;0.95;;;0.57;;
15240;SDS011;7723;52.170;9.978;2022-07-06T14:42:58;1.25;;;0.70;;
15240;SDS011;7723;52.170;9.978;2022-07-06T14:45:26;2.15;;;0.63;;
15240;SDS011;7723;52.170;9.978;2022-07-06T14:47:54;2.20;;;0.68;;
15240;SDS011;7723;52.170;9.978;2022-07-06T14:50:21;1.63;;;0.80;;
15240;SDS011;7723;52.170;9.978;2022-07-06T14:52:50;2.08;;;0.90;;
15240;SDS011;7723;52.170;9.978;2022-07-06T14:55:17;0.60;;;0.60;;
15240;SDS011;7723;52.170;9.978;2022-07-06T14:57:44;1.67;;;0.70;;
15240;SDS011;7723;52.170;9.978;2022-07-06T15:00:13;1.30;;;0.68;;
15240;SDS011;7723;52.170;9.978;2022-07-06T15:02:41;0.65;;;0.57;;
15240;SDS011;7723;52.170;9.978;2022-07-06T15:05:09;2.15;;;0.60;;
15240;SDS011;7723;52.170;9.978;2022-07-06T15:07:37;2.05;;;0.60;;
15240;SDS011;7723;52.170;9.978;2022-07-06T15:10:05;1.83;;;0.68;;